PWSweather.com
Personal Weather Stations
Station Observations
HESKRFRR38
Schwerin, Germany, Klein RogahnDE 19073

Schwerin, GermanyKlein RogahnDE 19073

Lat: 53.6059537, Lon: 11.3412162

Elevation: 167.3226

Station Type: VantagePro2

wetter.hes61.de

High Low Average
Temperature 67.6°F19.8°C 32.5°F0.3°C 50.9°F10.5°C
Dew Point 45.7°F7.6°C 28.0°F-2.2°C 36.7°F2.6°C
Winds 10.0 mph 16.1 kmh Calm Calm 3.0 mph E4.8 kmh E
Wind Gusts 15.0 mph24.1 kmh 1.0 mph1.6 kmh 7.0 mph11.3 kmh
Humidity 85% 34% 61%
Pressure 30.47 in1031.8 mb 30.33 in1027.1 mb -
Precipitation 0.00 in0.0 mm - -
Hour Temp Dew Point Humidity Winds Wind Gusts Pressure Precip Precip Rate Daily Precip Total
12:00 AM 41.3°F5.2°C 34.6°F1.4°C 77% 1.0 mph NE1.6 kmh NE 3.0 mph4.8 kmh 30.47 in1031.8 mb 0.00 in0.0 mm 0.00 in0.0 mm 0.00 in0.0 mm
12:05 AM 41.6°F5.3°C 34.9°F1.6°C 77% 1.0 mph NE1.6 kmh NE 3.0 mph4.8 kmh 30.47 in1031.8 mb 0.00 in0.0 mm 0.00 in0.0 mm 0.00 in0.0 mm
12:10 AM 41.3°F5.2°C 34.6°F1.4°C 77% 1.0 mph NE1.6 kmh NE 3.0 mph4.8 kmh 30.47 in1031.8 mb 0.00 in0.0 mm 0.00 in0.0 mm 0.00 in0.0 mm
12:15 AM 41.3°F5.2°C 34.3°F1.3°C 76% Calm Calm 3.0 mph4.8 kmh 30.47 in1031.8 mb 0.00 in0.0 mm 0.00 in0.0 mm 0.00 in0.0 mm
12:20 AM 41.5°F5.3°C 34.5°F1.4°C 76% Calm Calm 3.0 mph4.8 kmh 30.47 in1031.8 mb 0.00 in0.0 mm 0.00 in0.0 mm 0.00 in0.0 mm
12:25 AM 41.5°F5.3°C 34.2°F1.2°C 75% 1.0 mph NE1.6 kmh NE 3.0 mph4.8 kmh 30.46 in1031.5 mb 0.00 in0.0 mm 0.00 in0.0 mm 0.00 in0.0 mm
12:30 AM 41.3°F5.2°C 34.3°F1.3°C 76% 1.0 mph NE1.6 kmh NE 4.0 mph6.4 kmh 30.46 in1031.5 mb 0.00 in0.0 mm 0.00 in0.0 mm 0.00 in0.0 mm
12:35 AM 41.8°F5.4°C 34.5°F1.4°C 75% 1.0 mph NE1.6 kmh NE 3.0 mph4.8 kmh 30.46 in1031.5 mb 0.00 in0.0 mm 0.00 in0.0 mm 0.00 in0.0 mm
12:40 AM 42.6°F5.9°C 34.9°F1.6°C 74% 1.0 mph NE1.6 kmh NE 4.0 mph6.4 kmh 30.46 in1031.5 mb 0.00 in0.0 mm 0.00 in0.0 mm 0.00 in0.0 mm
12:45 AM 42.8°F6.0°C 34.8°F1.6°C 73% 2.0 mph NE3.2 kmh NE 5.0 mph8.0 kmh 30.46 in1031.5 mb 0.00 in0.0 mm 0.00 in0.0 mm 0.00 in0.0 mm
12:50 AM 43.2°F6.2°C 35.1°F1.7°C 73% 2.0 mph NE3.2 kmh NE 4.0 mph6.4 kmh 30.46 in1031.5 mb 0.00 in0.0 mm 0.00 in0.0 mm 0.00 in0.0 mm
12:55 AM 43.4°F6.3°C 35.0°F1.7°C 72% 1.0 mph NE1.6 kmh NE 5.0 mph8.0 kmh 30.46 in1031.5 mb 0.00 in0.0 mm 0.00 in0.0 mm 0.00 in0.0 mm
01:00 AM 43.2°F6.2°C 34.8°F1.6°C 72% 2.0 mph NE3.2 kmh NE 5.0 mph8.0 kmh 30.46 in1031.5 mb 0.00 in0.0 mm 0.00 in0.0 mm 0.00 in0.0 mm
01:05 AM 43.2°F6.2°C 34.8°F1.6°C 72% 1.0 mph NE1.6 kmh NE 4.0 mph6.4 kmh 30.46 in1031.5 mb 0.00 in0.0 mm 0.00 in0.0 mm 0.00 in0.0 mm
01:10 AM 43.1°F6.2°C 34.7°F1.5°C 72% 1.0 mph NE1.6 kmh NE 4.0 mph6.4 kmh 30.46 in1031.5 mb 0.00 in0.0 mm 0.00 in0.0 mm 0.00 in0.0 mm
01:15 AM 42.7°F5.9°C 34.3°F1.3°C 72% 1.0 mph NE1.6 kmh NE 3.0 mph4.8 kmh 30.46 in1031.5 mb 0.00 in0.0 mm 0.00 in0.0 mm 0.00 in0.0 mm
01:20 AM 42.6°F5.9°C 34.2°F1.2°C 72% 2.0 mph NE3.2 kmh NE 4.0 mph6.4 kmh 30.46 in1031.5 mb 0.00 in0.0 mm 0.00 in0.0 mm 0.00 in0.0 mm
01:25 AM 42.4°F5.8°C 34.0°F1.1°C 72% 1.0 mph NE1.6 kmh NE 3.0 mph4.8 kmh 30.46 in1031.5 mb 0.00 in0.0 mm 0.00 in0.0 mm 0.00 in0.0 mm
01:30 AM 42.2°F5.7°C 33.8°F1.0°C 72% 2.0 mph NE3.2 kmh NE 4.0 mph6.4 kmh 30.46 in1031.5 mb 0.00 in0.0 mm 0.00 in0.0 mm 0.00 in0.0 mm
01:35 AM 42.1°F5.6°C 33.7°F0.9°C 72% 2.0 mph NE3.2 kmh NE 5.0 mph8.0 kmh 30.46 in1031.5 mb 0.00 in0.0 mm 0.00 in0.0 mm 0.00 in0.0 mm
01:40 AM 42.1°F5.6°C 33.4°F0.8°C 71% 2.0 mph NE3.2 kmh NE 4.0 mph6.4 kmh 30.46 in1031.5 mb 0.00 in0.0 mm 0.00 in0.0 mm 0.00 in0.0 mm
01:45 AM 42.2°F5.7°C 33.5°F0.8°C 71% 2.0 mph NE3.2 kmh NE 4.0 mph6.4 kmh 30.46 in1031.5 mb 0.00 in0.0 mm 0.00 in0.0 mm 0.00 in0.0 mm
01:50 AM 42.2°F5.7°C 33.5°F0.8°C 71% 2.0 mph NE3.2 kmh NE 4.0 mph6.4 kmh 30.46 in1031.5 mb 0.00 in0.0 mm 0.00 in0.0 mm 0.00 in0.0 mm
01:55 AM 42.5°F5.8°C 33.4°F0.8°C 70% 3.0 mph NE4.8 kmh NE 5.0 mph8.0 kmh 30.46 in1031.5 mb 0.00 in0.0 mm 0.00 in0.0 mm 0.00 in0.0 mm
02:00 AM 42.6°F5.9°C 33.2°F0.7°C 69% 1.0 mph NE1.6 kmh NE 4.0 mph6.4 kmh 30.45 in1031.2 mb 0.00 in0.0 mm 0.00 in0.0 mm 0.00 in0.0 mm
02:05 AM 42.7°F5.9°C 32.9°F0.5°C 68% 1.0 mph NE1.6 kmh NE 4.0 mph6.4 kmh 30.45 in1031.2 mb 0.00 in0.0 mm 0.00 in0.0 mm 0.00 in0.0 mm
02:10 AM 42.4°F5.8°C 32.2°F0.1°C 67% 1.0 mph NE1.6 kmh NE 4.0 mph6.4 kmh 30.45 in1031.2 mb 0.00 in0.0 mm 0.00 in0.0 mm 0.00 in0.0 mm
02:15 AM 42.0°F5.6°C 32.2°F0.1°C 68% Calm Calm 4.0 mph6.4 kmh 30.45 in1031.2 mb 0.00 in0.0 mm 0.00 in0.0 mm 0.00 in0.0 mm
02:20 AM 41.3°F5.2°C 31.5°F-0.3°C 68% Calm Calm 3.0 mph4.8 kmh 30.45 in1031.2 mb 0.00 in0.0 mm 0.00 in0.0 mm 0.00 in0.0 mm
02:25 AM 39.5°F4.2°C 30.9°F-0.6°C 71% Calm Calm 3.0 mph4.8 kmh 30.45 in1031.2 mb 0.00 in0.0 mm 0.00 in0.0 mm 0.00 in0.0 mm
02:30 AM 38.7°F3.7°C 31.1°F-0.5°C 74% 1.0 mph NNE1.6 kmh NNE 4.0 mph6.4 kmh 30.45 in1031.2 mb 0.00 in0.0 mm 0.00 in0.0 mm 0.00 in0.0 mm
02:35 AM 38.6°F3.7°C 31.7°F-0.2°C 76% 1.0 mph NNE1.6 kmh NNE 3.0 mph4.8 kmh 30.45 in1031.2 mb 0.00 in0.0 mm 0.00 in0.0 mm 0.00 in0.0 mm
02:40 AM 38.4°F3.6°C 31.8°F-0.1°C 77% 2.0 mph NNE3.2 kmh NNE 4.0 mph6.4 kmh 30.45 in1031.2 mb 0.00 in0.0 mm 0.00 in0.0 mm 0.00 in0.0 mm
02:45 AM 38.7°F3.7°C 32.1°F0.1°C 77% 2.0 mph NNE3.2 kmh NNE 5.0 mph8.0 kmh 30.45 in1031.2 mb 0.00 in0.0 mm 0.00 in0.0 mm 0.00 in0.0 mm
02:50 AM 38.9°F3.8°C 32.0°F0.0°C 76% 2.0 mph NE3.2 kmh NE 5.0 mph8.0 kmh 30.45 in1031.2 mb 0.00 in0.0 mm 0.00 in0.0 mm 0.00 in0.0 mm
02:55 AM 38.8°F3.8°C 31.6°F-0.2°C 75% 1.0 mph NE1.6 kmh NE 4.0 mph6.4 kmh 30.45 in1031.2 mb 0.00 in0.0 mm 0.00 in0.0 mm 0.00 in0.0 mm
03:00 AM 39.1°F3.9°C 31.9°F-0.1°C 75% 2.0 mph NE3.2 kmh NE 5.0 mph8.0 kmh 30.45 in1031.2 mb 0.00 in0.0 mm 0.00 in0.0 mm 0.00 in0.0 mm
03:05 AM 39.5°F4.2°C 31.2°F-0.4°C 72% 2.0 mph NE3.2 kmh NE 4.0 mph6.4 kmh 30.45 in1031.2 mb 0.00 in0.0 mm 0.00 in0.0 mm 0.00 in0.0 mm
03:10 AM 39.6°F4.2°C 31.0°F-0.6°C 71% 2.0 mph NE3.2 kmh NE 5.0 mph8.0 kmh 30.45 in1031.2 mb 0.00 in0.0 mm 0.00 in0.0 mm 0.00 in0.0 mm
03:15 AM 39.3°F4.1°C 30.7°F-0.7°C 71% 2.0 mph NE3.2 kmh NE 5.0 mph8.0 kmh 30.45 in1031.2 mb 0.00 in0.0 mm 0.00 in0.0 mm 0.00 in0.0 mm
03:20 AM 39.3°F4.1°C 30.7°F-0.7°C 71% 2.0 mph NE3.2 kmh NE 4.0 mph6.4 kmh 30.46 in1031.5 mb 0.00 in0.0 mm 0.00 in0.0 mm 0.00 in0.0 mm
03:25 AM 39.0°F3.9°C 30.1°F-1.1°C 70% 1.0 mph NE1.6 kmh NE 4.0 mph6.4 kmh 30.45 in1031.2 mb 0.00 in0.0 mm 0.00 in0.0 mm 0.00 in0.0 mm
03:30 AM 38.2°F3.4°C 30.0°F-1.1°C 72% 1.0 mph NE1.6 kmh NE 4.0 mph6.4 kmh 30.45 in1031.2 mb 0.00 in0.0 mm 0.00 in0.0 mm 0.00 in0.0 mm
03:35 AM 37.9°F3.3°C 30.4°F-0.9°C 74% 2.0 mph NE3.2 kmh NE 5.0 mph8.0 kmh 30.45 in1031.2 mb 0.00 in0.0 mm 0.00 in0.0 mm 0.00 in0.0 mm
03:40 AM 38.0°F3.3°C 30.5°F-0.8°C 74% 1.0 mph NE1.6 kmh NE 3.0 mph4.8 kmh 30.45 in1031.2 mb 0.00 in0.0 mm 0.00 in0.0 mm 0.00 in0.0 mm
03:45 AM 38.1°F3.4°C 30.2°F-1.0°C 73% 1.0 mph NE1.6 kmh NE 4.0 mph6.4 kmh 30.46 in1031.5 mb 0.00 in0.0 mm 0.00 in0.0 mm 0.00 in0.0 mm
03:50 AM 37.7°F3.2°C 29.8°F-1.2°C 73% 1.0 mph NE1.6 kmh NE 4.0 mph6.4 kmh 30.46 in1031.5 mb 0.00 in0.0 mm 0.00 in0.0 mm 0.00 in0.0 mm
03:55 AM 37.3°F2.9°C 29.5°F-1.4°C 73% 1.0 mph NE1.6 kmh NE 3.0 mph4.8 kmh 30.45 in1031.2 mb 0.00 in0.0 mm 0.00 in0.0 mm 0.00 in0.0 mm
04:00 AM 37.0°F2.8°C 29.8°F-1.2°C 75% 2.0 mph NNE3.2 kmh NNE 5.0 mph8.0 kmh 30.45 in1031.2 mb 0.00 in0.0 mm 0.00 in0.0 mm 0.00 in0.0 mm
04:05 AM 37.2°F2.9°C 30.3°F-0.9°C 76% 1.0 mph NE1.6 kmh NE 5.0 mph8.0 kmh 30.45 in1031.2 mb 0.00 in0.0 mm 0.00 in0.0 mm 0.00 in0.0 mm
04:10 AM 37.0°F2.8°C 30.2°F-1.0°C 76% 1.0 mph NE1.6 kmh NE 4.0 mph6.4 kmh 30.45 in1031.2 mb 0.00 in0.0 mm 0.00 in0.0 mm 0.00 in0.0 mm
04:15 AM 36.9°F2.7°C 30.1°F-1.1°C 76% 1.0 mph NE1.6 kmh NE 3.0 mph4.8 kmh 30.45 in1031.2 mb 0.00 in0.0 mm 0.00 in0.0 mm 0.00 in0.0 mm
04:20 AM 36.6°F2.6°C 30.1°F-1.1°C 77% 1.0 mph NE1.6 kmh NE 4.0 mph6.4 kmh 30.45 in1031.2 mb 0.00 in0.0 mm 0.00 in0.0 mm 0.00 in0.0 mm
04:25 AM 36.5°F2.5°C 30.0°F-1.1°C 77% 1.0 mph NE1.6 kmh NE 4.0 mph6.4 kmh 30.45 in1031.2 mb 0.00 in0.0 mm 0.00 in0.0 mm 0.00 in0.0 mm
04:30 AM 36.3°F2.4°C 29.8°F-1.2°C 77% 1.0 mph NE1.6 kmh NE 3.0 mph4.8 kmh 30.45 in1031.2 mb 0.00 in0.0 mm 0.00 in0.0 mm 0.00 in0.0 mm
04:35 AM 35.7°F2.1°C 29.2°F-1.6°C 77% 2.0 mph NE3.2 kmh NE 5.0 mph8.0 kmh 30.45 in1031.2 mb 0.00 in0.0 mm 0.00 in0.0 mm 0.00 in0.0 mm
04:40 AM 36.1°F2.3°C 29.9°F-1.2°C 78% 2.0 mph NE3.2 kmh NE 5.0 mph8.0 kmh 30.45 in1031.2 mb 0.00 in0.0 mm 0.00 in0.0 mm 0.00 in0.0 mm
04:45 AM 36.1°F2.3°C 29.9°F-1.2°C 78% 2.0 mph NE3.2 kmh NE 4.0 mph6.4 kmh 30.45 in1031.2 mb 0.00 in0.0 mm 0.00 in0.0 mm 0.00 in0.0 mm
04:50 AM 36.1°F2.3°C 29.9°F-1.2°C 78% 2.0 mph NE3.2 kmh NE 4.0 mph6.4 kmh 30.45 in1031.2 mb 0.00 in0.0 mm 0.00 in0.0 mm 0.00 in0.0 mm
04:55 AM 36.2°F2.3°C 29.7°F-1.3°C 77% 1.0 mph NE1.6 kmh NE 3.0 mph4.8 kmh 30.45 in1031.2 mb 0.00 in0.0 mm 0.00 in0.0 mm 0.00 in0.0 mm
05:00 AM 36.1°F2.3°C 29.9°F-1.2°C 78% 1.0 mph NE1.6 kmh NE 4.0 mph6.4 kmh 30.45 in1031.2 mb 0.00 in0.0 mm 0.00 in0.0 mm 0.00 in0.0 mm
05:05 AM 35.1°F1.7°C 28.9°F-1.7°C 78% 1.0 mph NE1.6 kmh NE 3.0 mph4.8 kmh 30.45 in1031.2 mb 0.00 in0.0 mm 0.00 in0.0 mm 0.00 in0.0 mm
05:10 AM 33.6°F0.9°C 28.1°F-2.2°C 80% 1.0 mph NNE1.6 kmh NNE 3.0 mph4.8 kmh 30.45 in1031.2 mb 0.00 in0.0 mm 0.00 in0.0 mm 0.00 in0.0 mm
05:15 AM 32.9°F0.5°C 28.0°F-2.2°C 82% Calm Calm 1.0 mph1.6 kmh 30.45 in1031.2 mb 0.00 in0.0 mm 0.00 in0.0 mm 0.00 in0.0 mm
05:20 AM 32.7°F0.4°C 28.1°F-2.2°C 83% Calm Calm 3.0 mph4.8 kmh 30.45 in1031.2 mb 0.00 in0.0 mm 0.00 in0.0 mm 0.00 in0.0 mm
05:25 AM 32.5°F0.3°C 28.2°F-2.1°C 84% 1.0 mph NNE1.6 kmh NNE 3.0 mph4.8 kmh 30.45 in1031.2 mb 0.00 in0.0 mm 0.00 in0.0 mm 0.00 in0.0 mm
05:30 AM 33.3°F0.7°C 29.3°F-1.5°C 85% 1.0 mph NNE1.6 kmh NNE 2.0 mph3.2 kmh 30.45 in1031.2 mb 0.00 in0.0 mm 0.00 in0.0 mm 0.00 in0.0 mm
05:35 AM 34.0°F1.1°C 29.7°F-1.3°C 84% 1.0 mph 1.6 kmh 4.0 mph6.4 kmh 30.45 in1031.2 mb 0.00 in0.0 mm 0.00 in0.0 mm 0.00 in0.0 mm
05:40 AM 34.1°F1.2°C 29.2°F-1.6°C 82% Calm Calm 2.0 mph3.2 kmh 30.46 in1031.5 mb 0.00 in0.0 mm 0.00 in0.0 mm 0.00 in0.0 mm
05:45 AM 34.0°F1.1°C 29.7°F-1.3°C 84% 1.0 mph 1.6 kmh 3.0 mph4.8 kmh 30.46 in1031.5 mb 0.00 in0.0 mm 0.00 in0.0 mm 0.00 in0.0 mm
05:50 AM 34.4°F1.3°C 30.4°F-0.9°C 85% Calm Calm 2.0 mph3.2 kmh 30.46 in1031.5 mb 0.00 in0.0 mm 0.00 in0.0 mm 0.00 in0.0 mm
05:55 AM 35.7°F2.1°C 31.6°F-0.2°C 85% 1.0 mph 1.6 kmh 3.0 mph4.8 kmh 30.46 in1031.5 mb 0.00 in0.0 mm 0.00 in0.0 mm 0.00 in0.0 mm
06:00 AM 36.7°F2.6°C 32.0°F0.0°C 83% 1.0 mph 1.6 kmh 3.0 mph4.8 kmh 30.46 in1031.5 mb 0.00 in0.0 mm 0.00 in0.0 mm 0.00 in0.0 mm
06:05 AM 37.5°F3.1°C 32.5°F0.3°C 82% Calm Calm 3.0 mph4.8 kmh 30.46 in1031.5 mb 0.00 in0.0 mm 0.00 in0.0 mm 0.00 in0.0 mm
06:10 AM 38.5°F3.6°C 33.2°F0.7°C 81% 1.0 mph 1.6 kmh 3.0 mph4.8 kmh 30.46 in1031.5 mb 0.00 in0.0 mm 0.00 in0.0 mm 0.00 in0.0 mm
06:15 AM 39.5°F4.2°C 33.5°F0.8°C 79% Calm Calm 3.0 mph4.8 kmh 30.46 in1031.5 mb 0.00 in0.0 mm 0.00 in0.0 mm 0.00 in0.0 mm
06:20 AM 40.2°F4.6°C 33.6°F0.9°C 77% Calm Calm 2.0 mph3.2 kmh 30.46 in1031.5 mb 0.00 in0.0 mm 0.00 in0.0 mm 0.00 in0.0 mm
06:25 AM 41.0°F5.0°C 34.0°F1.1°C 76% Calm Calm 1.0 mph1.6 kmh 30.46 in1031.5 mb 0.00 in0.0 mm 0.00 in0.0 mm 0.00 in0.0 mm
06:30 AM 41.5°F5.3°C 34.2°F1.2°C 75% 1.0 mph NNW1.6 kmh NNW 2.0 mph3.2 kmh 30.46 in1031.5 mb 0.00 in0.0 mm 0.00 in0.0 mm 0.00 in0.0 mm
06:35 AM 41.8°F5.4°C 34.1°F1.2°C 74% 1.0 mph 1.6 kmh 3.0 mph4.8 kmh 30.46 in1031.5 mb 0.00 in0.0 mm 0.00 in0.0 mm 0.00 in0.0 mm
06:40 AM 42.4°F5.8°C 35.0°F1.7°C 75% Calm Calm 2.0 mph3.2 kmh 30.46 in1031.5 mb 0.00 in0.0 mm 0.00 in0.0 mm 0.00 in0.0 mm
06:45 AM 43.3°F6.3°C 35.6°F2.0°C 74% Calm Calm 1.0 mph1.6 kmh 30.46 in1031.5 mb 0.00 in0.0 mm 0.00 in0.0 mm 0.00 in0.0 mm
06:50 AM 43.8°F6.6°C 35.0°F1.7°C 71% Calm Calm 3.0 mph4.8 kmh 30.46 in1031.5 mb 0.00 in0.0 mm 0.00 in0.0 mm 0.00 in0.0 mm
06:55 AM 44.7°F7.1°C 34.8°F1.6°C 68% Calm Calm 2.0 mph3.2 kmh 30.46 in1031.5 mb 0.00 in0.0 mm 0.00 in0.0 mm 0.00 in0.0 mm
07:00 AM 44.7°F7.1°C 33.3°F0.7°C 64% 1.0 mph ENE1.6 kmh ENE 7.0 mph11.3 kmh 30.46 in1031.5 mb 0.00 in0.0 mm 0.00 in0.0 mm 0.00 in0.0 mm
07:05 AM 45.4°F7.4°C 33.2°F0.7°C 62% 2.0 mph NE3.2 kmh NE 7.0 mph11.3 kmh 30.46 in1031.5 mb 0.00 in0.0 mm 0.00 in0.0 mm 0.00 in0.0 mm
07:10 AM 46.0°F7.8°C 33.3°F0.7°C 61% 2.0 mph NE3.2 kmh NE 5.0 mph8.0 kmh 30.46 in1031.5 mb 0.00 in0.0 mm 0.00 in0.0 mm 0.00 in0.0 mm
07:15 AM 46.0°F7.8°C 32.9°F0.5°C 60% 1.0 mph ENE1.6 kmh ENE 6.0 mph9.7 kmh 30.46 in1031.5 mb 0.00 in0.0 mm 0.00 in0.0 mm 0.00 in0.0 mm
07:20 AM 46.6°F8.1°C 33.0°F0.6°C 59% 2.0 mph ENE3.2 kmh ENE 6.0 mph9.7 kmh 30.46 in1031.5 mb 0.00 in0.0 mm 0.00 in0.0 mm 0.00 in0.0 mm
07:25 AM 47.0°F8.3°C 32.6°F0.3°C 57% 2.0 mph ENE3.2 kmh ENE 6.0 mph9.7 kmh 30.46 in1031.5 mb 0.00 in0.0 mm 0.00 in0.0 mm 0.00 in0.0 mm
07:30 AM 47.5°F8.6°C 31.7°F-0.2°C 54% 4.0 mph ENE6.4 kmh ENE 9.0 mph14.5 kmh 30.46 in1031.5 mb 0.00 in0.0 mm 0.00 in0.0 mm 0.00 in0.0 mm
07:35 AM 47.7°F8.7°C 31.9°F-0.1°C 54% 3.0 mph ENE4.8 kmh ENE 9.0 mph14.5 kmh 30.46 in1031.5 mb 0.00 in0.0 mm 0.00 in0.0 mm 0.00 in0.0 mm
07:40 AM 48.4°F9.1°C 31.6°F-0.2°C 52% 3.0 mph ENE4.8 kmh ENE 8.0 mph12.9 kmh 30.46 in1031.5 mb 0.00 in0.0 mm 0.00 in0.0 mm 0.00 in0.0 mm
07:45 AM 48.3°F9.1°C 31.5°F-0.3°C 52% 3.0 mph ENE4.8 kmh ENE 6.0 mph9.7 kmh 30.46 in1031.5 mb 0.00 in0.0 mm 0.00 in0.0 mm 0.00 in0.0 mm
07:50 AM 49.0°F9.4°C 31.2°F-0.4°C 50% 3.0 mph NE4.8 kmh NE 7.0 mph11.3 kmh 30.46 in1031.5 mb 0.00 in0.0 mm 0.00 in0.0 mm 0.00 in0.0 mm
07:55 AM 49.4°F9.7°C 32.5°F0.3°C 52% 4.0 mph NE6.4 kmh NE 7.0 mph11.3 kmh 30.46 in1031.5 mb 0.00 in0.0 mm 0.00 in0.0 mm 0.00 in0.0 mm
08:00 AM 50.2°F10.1°C 33.7°F0.9°C 53% 2.0 mph NE3.2 kmh NE 7.0 mph11.3 kmh 30.46 in1031.5 mb 0.00 in0.0 mm 0.00 in0.0 mm 0.00 in0.0 mm
08:05 AM 50.2°F10.1°C 32.3°F0.2°C 50% 3.0 mph ENE4.8 kmh ENE 9.0 mph14.5 kmh 30.46 in1031.5 mb 0.00 in0.0 mm 0.00 in0.0 mm 0.00 in0.0 mm
08:10 AM 50.3°F10.2°C 33.4°F0.8°C 52% 3.0 mph ENE4.8 kmh ENE 7.0 mph11.3 kmh 30.46 in1031.5 mb 0.00 in0.0 mm 0.00 in0.0 mm 0.00 in0.0 mm
08:15 AM 50.6°F10.3°C 32.7°F0.4°C 50% 5.0 mph NE8.0 kmh NE 10.0 mph16.1 kmh 30.46 in1031.5 mb 0.00 in0.0 mm 0.00 in0.0 mm 0.00 in0.0 mm
08:20 AM 51.2°F10.7°C 33.2°F0.7°C 50% 6.0 mph NE9.7 kmh NE 11.0 mph17.7 kmh 30.46 in1031.5 mb 0.00 in0.0 mm 0.00 in0.0 mm 0.00 in0.0 mm
08:25 AM 51.0°F10.6°C 32.5°F0.3°C 49% 4.0 mph ENE6.4 kmh ENE 10.0 mph16.1 kmh 30.46 in1031.5 mb 0.00 in0.0 mm 0.00 in0.0 mm 0.00 in0.0 mm
08:30 AM 51.6°F10.9°C 32.6°F0.3°C 48% 5.0 mph NE8.0 kmh NE 10.0 mph16.1 kmh 30.46 in1031.5 mb 0.00 in0.0 mm 0.00 in0.0 mm 0.00 in0.0 mm
08:35 AM 52.1°F11.2°C 34.0°F1.1°C 50% 2.0 mph ENE3.2 kmh ENE 9.0 mph14.5 kmh 30.46 in1031.5 mb 0.00 in0.0 mm 0.00 in0.0 mm 0.00 in0.0 mm
08:40 AM 52.8°F11.6°C 34.2°F1.2°C 49% 2.0 mph NE3.2 kmh NE 6.0 mph9.7 kmh 30.46 in1031.5 mb 0.00 in0.0 mm 0.00 in0.0 mm 0.00 in0.0 mm
08:45 AM 52.6°F11.4°C 34.5°F1.4°C 50% 2.0 mph NE3.2 kmh NE 7.0 mph11.3 kmh 30.46 in1031.5 mb 0.00 in0.0 mm 0.00 in0.0 mm 0.00 in0.0 mm
08:50 AM 52.8°F11.6°C 33.1°F0.6°C 47% 4.0 mph ENE6.4 kmh ENE 10.0 mph16.1 kmh 30.46 in1031.5 mb 0.00 in0.0 mm 0.00 in0.0 mm 0.00 in0.0 mm
08:55 AM 53.5°F11.9°C 34.8°F1.6°C 49% 4.0 mph ENE6.4 kmh ENE 9.0 mph14.5 kmh 30.46 in1031.5 mb 0.00 in0.0 mm 0.00 in0.0 mm 0.00 in0.0 mm
09:00 AM 53.7°F12.1°C 35.0°F1.7°C 49% 4.0 mph ENE6.4 kmh ENE 8.0 mph12.9 kmh 30.46 in1031.5 mb 0.00 in0.0 mm 0.00 in0.0 mm 0.00 in0.0 mm
09:05 AM 55.0°F12.8°C 36.7°F2.6°C 50% 3.0 mph NE4.8 kmh NE 8.0 mph12.9 kmh 30.46 in1031.5 mb 0.00 in0.0 mm 0.00 in0.0 mm 0.00 in0.0 mm
09:10 AM 54.9°F12.7°C 35.1°F1.7°C 47% 4.0 mph ENE6.4 kmh ENE 11.0 mph17.7 kmh 30.46 in1031.5 mb 0.00 in0.0 mm 0.00 in0.0 mm 0.00 in0.0 mm
09:15 AM 54.2°F12.3°C 34.4°F1.3°C 47% 5.0 mph NE8.0 kmh NE 10.0 mph16.1 kmh 30.46 in1031.5 mb 0.00 in0.0 mm 0.00 in0.0 mm 0.00 in0.0 mm
09:20 AM 55.2°F12.9°C 34.8°F1.6°C 46% 4.0 mph NE6.4 kmh NE 11.0 mph17.7 kmh 30.46 in1031.5 mb 0.00 in0.0 mm 0.00 in0.0 mm 0.00 in0.0 mm
09:25 AM 55.1°F12.8°C 34.7°F1.5°C 46% 6.0 mph NE9.7 kmh NE 12.0 mph19.3 kmh 30.46 in1031.5 mb 0.00 in0.0 mm 0.00 in0.0 mm 0.00 in0.0 mm
09:30 AM 55.2°F12.9°C 34.8°F1.6°C 46% 7.0 mph ENE11.3 kmh ENE 12.0 mph19.3 kmh 30.46 in1031.5 mb 0.00 in0.0 mm 0.00 in0.0 mm 0.00 in0.0 mm
09:35 AM 56.6°F13.7°C 35.5°F1.9°C 45% 4.0 mph ENE6.4 kmh ENE 9.0 mph14.5 kmh 30.46 in1031.5 mb 0.00 in0.0 mm 0.00 in0.0 mm 0.00 in0.0 mm
09:40 AM 56.2°F13.4°C 35.1°F1.7°C 45% 7.0 mph ENE11.3 kmh ENE 13.0 mph20.9 kmh 30.46 in1031.5 mb 0.00 in0.0 mm 0.00 in0.0 mm 0.00 in0.0 mm
09:45 AM 57.0°F13.9°C 36.4°F2.4°C 46% 7.0 mph NE11.3 kmh NE 13.0 mph20.9 kmh 30.46 in1031.5 mb 0.00 in0.0 mm 0.00 in0.0 mm 0.00 in0.0 mm
09:50 AM 57.5°F14.2°C 36.3°F2.4°C 45% 5.0 mph NE8.0 kmh NE 10.0 mph16.1 kmh 30.46 in1031.5 mb 0.00 in0.0 mm 0.00 in0.0 mm 0.00 in0.0 mm
09:55 AM 58.1°F14.5°C 35.7°F2.1°C 43% 6.0 mph NE9.7 kmh NE 13.0 mph20.9 kmh 30.46 in1031.5 mb 0.00 in0.0 mm 0.00 in0.0 mm 0.00 in0.0 mm
10:00 AM 58.4°F14.7°C 34.8°F1.6°C 41% 6.0 mph NE9.7 kmh NE 13.0 mph20.9 kmh 30.45 in1031.2 mb 0.00 in0.0 mm 0.00 in0.0 mm 0.00 in0.0 mm
10:05 AM 58.1°F14.5°C 35.1°F1.7°C 42% 7.0 mph ENE11.3 kmh ENE 12.0 mph19.3 kmh 30.45 in1031.2 mb 0.00 in0.0 mm 0.00 in0.0 mm 0.00 in0.0 mm
10:10 AM 57.9°F14.4°C 35.5°F1.9°C 43% 7.0 mph ENE11.3 kmh ENE 11.0 mph17.7 kmh 30.45 in1031.2 mb 0.00 in0.0 mm 0.00 in0.0 mm 0.00 in0.0 mm
10:15 AM 59.5°F15.3°C 35.8°F2.1°C 41% 5.0 mph NE8.0 kmh NE 11.0 mph17.7 kmh 30.45 in1031.2 mb 0.00 in0.0 mm 0.00 in0.0 mm 0.00 in0.0 mm
10:20 AM 60.5°F15.8°C 35.4°F1.9°C 39% 4.0 mph NNE6.4 kmh NNE 10.0 mph16.1 kmh 30.45 in1031.2 mb 0.00 in0.0 mm 0.00 in0.0 mm 0.00 in0.0 mm
10:25 AM 60.7°F15.9°C 34.9°F1.6°C 38% 6.0 mph NNE9.7 kmh NNE 13.0 mph20.9 kmh 30.45 in1031.2 mb 0.00 in0.0 mm 0.00 in0.0 mm 0.00 in0.0 mm
10:30 AM 60.4°F15.8°C 36.0°F2.2°C 40% 5.0 mph NNE8.0 kmh NNE 11.0 mph17.7 kmh 30.45 in1031.2 mb 0.00 in0.0 mm 0.00 in0.0 mm 0.00 in0.0 mm
10:35 AM 60.4°F15.8°C 34.7°F1.5°C 38% 5.0 mph NNE8.0 kmh NNE 11.0 mph17.7 kmh 30.45 in1031.2 mb 0.00 in0.0 mm 0.00 in0.0 mm 0.00 in0.0 mm
10:40 AM 60.0°F15.6°C 34.3°F1.3°C 38% 6.0 mph NE9.7 kmh NE 10.0 mph16.1 kmh 30.45 in1031.2 mb 0.00 in0.0 mm 0.00 in0.0 mm 0.00 in0.0 mm
10:45 AM 61.3°F16.3°C 35.5°F1.9°C 38% 5.0 mph NNE8.0 kmh NNE 12.0 mph19.3 kmh 30.45 in1031.2 mb 0.00 in0.0 mm 0.00 in0.0 mm 0.00 in0.0 mm
10:50 AM 61.2°F16.2°C 33.3°F0.7°C 35% 5.0 mph NE8.0 kmh NE 15.0 mph24.1 kmh 30.45 in1031.2 mb 0.00 in0.0 mm 0.00 in0.0 mm 0.00 in0.0 mm
10:55 AM 61.9°F16.6°C 34.7°F1.5°C 36% 6.0 mph NE9.7 kmh NE 12.0 mph19.3 kmh 30.45 in1031.2 mb 0.00 in0.0 mm 0.00 in0.0 mm 0.00 in0.0 mm
11:00 AM 61.9°F16.6°C 33.9°F1.1°C 35% 7.0 mph NE11.3 kmh NE 15.0 mph24.1 kmh 30.44 in1030.8 mb 0.00 in0.0 mm 0.00 in0.0 mm 0.00 in0.0 mm
11:05 AM 61.8°F16.6°C 33.9°F1.1°C 35% 4.0 mph NNE6.4 kmh NNE 11.0 mph17.7 kmh 30.44 in1030.8 mb 0.00 in0.0 mm 0.00 in0.0 mm 0.00 in0.0 mm
11:10 AM 62.9°F17.2°C 34.1°F1.2°C 34% 5.0 mph NNE8.0 kmh NNE 14.0 mph22.5 kmh 30.44 in1030.8 mb 0.00 in0.0 mm 0.00 in0.0 mm 0.00 in0.0 mm
11:15 AM 62.9°F17.2°C 34.8°F1.6°C 35% 5.0 mph NNE8.0 kmh NNE 11.0 mph17.7 kmh 30.44 in1030.8 mb 0.00 in0.0 mm 0.00 in0.0 mm 0.00 in0.0 mm
11:20 AM 63.1°F17.3°C 34.3°F1.3°C 34% 6.0 mph NNE9.7 kmh NNE 15.0 mph24.1 kmh 30.44 in1030.8 mb 0.00 in0.0 mm 0.00 in0.0 mm 0.00 in0.0 mm
11:25 AM 63.1°F17.3°C 34.3°F1.3°C 34% 4.0 mph NNE6.4 kmh NNE 11.0 mph17.7 kmh 30.44 in1030.8 mb 0.00 in0.0 mm 0.00 in0.0 mm 0.00 in0.0 mm
11:30 AM 63.7°F17.6°C 36.9°F2.7°C 37% 5.0 mph 8.0 kmh 12.0 mph19.3 kmh 30.43 in1030.5 mb 0.00 in0.0 mm 0.00 in0.0 mm 0.00 in0.0 mm
11:35 AM 62.9°F17.2°C 35.5°F1.9°C 36% 5.0 mph NE8.0 kmh NE 11.0 mph17.7 kmh 30.43 in1030.5 mb 0.00 in0.0 mm 0.00 in0.0 mm 0.00 in0.0 mm
11:40 AM 62.9°F17.2°C 36.9°F2.7°C 38% 6.0 mph NE9.7 kmh NE 12.0 mph19.3 kmh 30.43 in1030.5 mb 0.00 in0.0 mm 0.00 in0.0 mm 0.00 in0.0 mm
11:45 AM 63.0°F17.2°C 37.0°F2.8°C 38% 5.0 mph ENE8.0 kmh ENE 10.0 mph16.1 kmh 30.43 in1030.5 mb 0.00 in0.0 mm 0.00 in0.0 mm 0.00 in0.0 mm
11:50 AM 63.9°F17.7°C 37.8°F3.2°C 38% 5.0 mph ENE8.0 kmh ENE 10.0 mph16.1 kmh 30.43 in1030.5 mb 0.00 in0.0 mm 0.00 in0.0 mm 0.00 in0.0 mm
11:55 AM 63.7°F17.6°C 36.9°F2.7°C 37% 5.0 mph NE8.0 kmh NE 13.0 mph20.9 kmh 30.43 in1030.5 mb 0.00 in0.0 mm 0.00 in0.0 mm 0.00 in0.0 mm
12:00 PM 64.4°F18.0°C 38.2°F3.4°C 38% 4.0 mph NE6.4 kmh NE 12.0 mph19.3 kmh 30.43 in1030.5 mb 0.00 in0.0 mm 0.00 in0.0 mm 0.00 in0.0 mm
12:05 PM 64.5°F18.1°C 37.6°F3.1°C 37% 6.0 mph NNE9.7 kmh NNE 15.0 mph24.1 kmh 30.43 in1030.5 mb 0.00 in0.0 mm 0.00 in0.0 mm 0.00 in0.0 mm
12:10 PM 63.2°F17.3°C 37.8°F3.2°C 39% 6.0 mph ENE9.7 kmh ENE 11.0 mph17.7 kmh 30.43 in1030.5 mb 0.00 in0.0 mm 0.00 in0.0 mm 0.00 in0.0 mm
12:15 PM 62.8°F17.1°C 38.1°F3.4°C 40% 5.0 mph NE8.0 kmh NE 13.0 mph20.9 kmh 30.43 in1030.5 mb 0.00 in0.0 mm 0.00 in0.0 mm 0.00 in0.0 mm
12:20 PM 63.1°F17.3°C 37.7°F3.2°C 39% 5.0 mph NE8.0 kmh NE 13.0 mph20.9 kmh 30.43 in1030.5 mb 0.00 in0.0 mm 0.00 in0.0 mm 0.00 in0.0 mm
12:25 PM 64.1°F17.8°C 39.3°F4.1°C 40% 4.0 mph NE6.4 kmh NE 13.0 mph20.9 kmh 30.43 in1030.5 mb 0.00 in0.0 mm 0.00 in0.0 mm 0.00 in0.0 mm
12:30 PM 63.7°F17.6°C 37.6°F3.1°C 38% 3.0 mph ENE4.8 kmh ENE 9.0 mph14.5 kmh 30.43 in1030.5 mb 0.00 in0.0 mm 0.00 in0.0 mm 0.00 in0.0 mm
12:35 PM 65.6°F18.7°C 40.6°F4.8°C 40% 4.0 mph NNE6.4 kmh NNE 9.0 mph14.5 kmh 30.42 in1030.1 mb 0.00 in0.0 mm 0.00 in0.0 mm 0.00 in0.0 mm
12:40 PM 65.9°F18.8°C 38.2°F3.4°C 36% 5.0 mph NE8.0 kmh NE 12.0 mph19.3 kmh 30.42 in1030.1 mb 0.00 in0.0 mm 0.00 in0.0 mm 0.00 in0.0 mm
12:45 PM 64.8°F18.2°C 37.9°F3.3°C 37% 2.0 mph NNE3.2 kmh NNE 10.0 mph16.1 kmh 30.42 in1030.1 mb 0.00 in0.0 mm 0.00 in0.0 mm 0.00 in0.0 mm
12:50 PM 65.6°F18.7°C 39.3°F4.1°C 38% 5.0 mph NE8.0 kmh NE 12.0 mph19.3 kmh 30.41 in1029.8 mb 0.00 in0.0 mm 0.00 in0.0 mm 0.00 in0.0 mm
12:55 PM 66.6°F19.2°C 40.2°F4.6°C 38% 2.0 mph NNE3.2 kmh NNE 9.0 mph14.5 kmh 30.41 in1029.8 mb 0.00 in0.0 mm 0.00 in0.0 mm 0.00 in0.0 mm
01:00 PM 64.5°F18.1°C 37.0°F2.8°C 36% 5.0 mph ENE8.0 kmh ENE 14.0 mph22.5 kmh 30.41 in1029.8 mb 0.00 in0.0 mm 0.00 in0.0 mm 0.00 in0.0 mm
01:05 PM 64.9°F18.3°C 38.7°F3.7°C 38% 4.0 mph NE6.4 kmh NE 10.0 mph16.1 kmh 30.41 in1029.8 mb 0.00 in0.0 mm 0.00 in0.0 mm 0.00 in0.0 mm
01:10 PM 66.1°F18.9°C 39.1°F3.9°C 37% 5.0 mph NE8.0 kmh NE 15.0 mph24.1 kmh 30.41 in1029.8 mb 0.00 in0.0 mm 0.00 in0.0 mm 0.00 in0.0 mm
01:15 PM 66.2°F19.0°C 39.2°F4.0°C 37% 6.0 mph NE9.7 kmh NE 13.0 mph20.9 kmh 30.41 in1029.8 mb 0.00 in0.0 mm 0.00 in0.0 mm 0.00 in0.0 mm
01:20 PM 66.2°F19.0°C 39.2°F4.0°C 37% 4.0 mph NNE6.4 kmh NNE 10.0 mph16.1 kmh 30.41 in1029.8 mb 0.00 in0.0 mm 0.00 in0.0 mm 0.00 in0.0 mm
01:25 PM 66.5°F19.2°C 39.4°F4.1°C 37% 4.0 mph NE6.4 kmh NE 8.0 mph12.9 kmh 30.41 in1029.8 mb 0.00 in0.0 mm 0.00 in0.0 mm 0.00 in0.0 mm
01:30 PM 67.4°F19.7°C 41.6°F5.3°C 39% 3.0 mph NE4.8 kmh NE 10.0 mph16.1 kmh 30.41 in1029.8 mb 0.00 in0.0 mm 0.00 in0.0 mm 0.00 in0.0 mm
01:35 PM 66.6°F19.2°C 38.8°F3.8°C 36% 4.0 mph ENE6.4 kmh ENE 10.0 mph16.1 kmh 30.40 in1029.5 mb 0.00 in0.0 mm 0.00 in0.0 mm 0.00 in0.0 mm
01:40 PM 66.0°F18.9°C 40.3°F4.6°C 39% 5.0 mph NE8.0 kmh NE 10.0 mph16.1 kmh 30.40 in1029.5 mb 0.00 in0.0 mm 0.00 in0.0 mm 0.00 in0.0 mm
01:45 PM 65.8°F18.8°C 38.8°F3.8°C 37% 3.0 mph ENE4.8 kmh ENE 9.0 mph14.5 kmh 30.40 in1029.5 mb 0.00 in0.0 mm 0.00 in0.0 mm 0.00 in0.0 mm
01:50 PM 66.3°F19.1°C 40.6°F4.8°C 39% 3.0 mph NE4.8 kmh NE 11.0 mph17.7 kmh 30.40 in1029.5 mb 0.00 in0.0 mm 0.00 in0.0 mm 0.00 in0.0 mm
01:55 PM 67.2°F19.6°C 40.7°F4.8°C 38% 4.0 mph NE6.4 kmh NE 14.0 mph22.5 kmh 30.40 in1029.5 mb 0.00 in0.0 mm 0.00 in0.0 mm 0.00 in0.0 mm
02:00 PM 67.6°F19.8°C 43.1°F6.2°C 41% 2.0 mph NNW3.2 kmh NNW 6.0 mph9.7 kmh 30.40 in1029.5 mb 0.00 in0.0 mm 0.00 in0.0 mm 0.00 in0.0 mm
02:05 PM 66.8°F19.3°C 40.4°F4.7°C 38% 5.0 mph NE8.0 kmh NE 12.0 mph19.3 kmh 30.40 in1029.5 mb 0.00 in0.0 mm 0.00 in0.0 mm 0.00 in0.0 mm
02:10 PM 66.1°F18.9°C 39.1°F3.9°C 37% 6.0 mph NE9.7 kmh NE 11.0 mph17.7 kmh 30.40 in1029.5 mb 0.00 in0.0 mm 0.00 in0.0 mm 0.00 in0.0 mm
02:15 PM 65.9°F18.8°C 40.2°F4.6°C 39% 5.0 mph NE8.0 kmh NE 11.0 mph17.7 kmh 30.39 in1029.1 mb 0.00 in0.0 mm 0.00 in0.0 mm 0.00 in0.0 mm
02:20 PM 66.1°F18.9°C 41.7°F5.4°C 41% 4.0 mph ENE6.4 kmh ENE 10.0 mph16.1 kmh 30.39 in1029.1 mb 0.00 in0.0 mm 0.00 in0.0 mm 0.00 in0.0 mm
02:25 PM 66.7°F19.3°C 41.0°F5.0°C 39% 6.0 mph 9.7 kmh 12.0 mph19.3 kmh 30.39 in1029.1 mb 0.00 in0.0 mm 0.00 in0.0 mm 0.00 in0.0 mm
02:30 PM 66.9°F19.4°C 41.1°F5.1°C 39% 6.0 mph NNW9.7 kmh NNW 11.0 mph17.7 kmh 30.39 in1029.1 mb 0.00 in0.0 mm 0.00 in0.0 mm 0.00 in0.0 mm
02:35 PM 67.2°F19.6°C 41.4°F5.2°C 39% 4.0 mph NNE6.4 kmh NNE 10.0 mph16.1 kmh 30.39 in1029.1 mb 0.00 in0.0 mm 0.00 in0.0 mm 0.00 in0.0 mm
02:40 PM 67.4°F19.7°C 42.9°F6.1°C 41% 4.0 mph NE6.4 kmh NE 10.0 mph16.1 kmh 30.39 in1029.1 mb 0.00 in0.0 mm 0.00 in0.0 mm 0.00 in0.0 mm
02:45 PM 66.6°F19.2°C 41.5°F5.3°C 40% 4.0 mph ENE6.4 kmh ENE 9.0 mph14.5 kmh 30.39 in1029.1 mb 0.00 in0.0 mm 0.00 in0.0 mm 0.00 in0.0 mm
02:50 PM 66.6°F19.2°C 40.9°F4.9°C 39% 5.0 mph 8.0 kmh 11.0 mph17.7 kmh 30.38 in1028.8 mb 0.00 in0.0 mm 0.00 in0.0 mm 0.00 in0.0 mm
02:55 PM 66.7°F19.3°C 41.0°F5.0°C 39% 5.0 mph NE8.0 kmh NE 13.0 mph20.9 kmh 30.38 in1028.8 mb 0.00 in0.0 mm 0.00 in0.0 mm 0.00 in0.0 mm
03:00 PM 66.0°F18.9°C 40.3°F4.6°C 39% 6.0 mph NE9.7 kmh NE 12.0 mph19.3 kmh 30.38 in1028.8 mb 0.00 in0.0 mm 0.00 in0.0 mm 0.00 in0.0 mm
03:05 PM 65.7°F18.7°C 40.1°F4.5°C 39% 4.0 mph ENE6.4 kmh ENE 10.0 mph16.1 kmh 30.38 in1028.8 mb 0.00 in0.0 mm 0.00 in0.0 mm 0.00 in0.0 mm
03:10 PM 66.3°F19.1°C 40.6°F4.8°C 39% 2.0 mph NNE3.2 kmh NNE 10.0 mph16.1 kmh 30.38 in1028.8 mb 0.00 in0.0 mm 0.00 in0.0 mm 0.00 in0.0 mm
03:15 PM 66.6°F19.2°C 41.5°F5.3°C 40% 5.0 mph NNE8.0 kmh NNE 11.0 mph17.7 kmh 30.38 in1028.8 mb 0.00 in0.0 mm 0.00 in0.0 mm 0.00 in0.0 mm
03:20 PM 65.8°F18.8°C 41.4°F5.2°C 41% 5.0 mph NE8.0 kmh NE 10.0 mph16.1 kmh 30.37 in1028.4 mb 0.00 in0.0 mm 0.00 in0.0 mm 0.00 in0.0 mm
03:25 PM 66.1°F18.9°C 41.1°F5.1°C 40% 5.0 mph NE8.0 kmh NE 13.0 mph20.9 kmh 30.37 in1028.4 mb 0.00 in0.0 mm 0.00 in0.0 mm 0.00 in0.0 mm
03:30 PM 65.9°F18.8°C 40.9°F4.9°C 40% 6.0 mph 9.7 kmh 12.0 mph19.3 kmh 30.37 in1028.4 mb 0.00 in0.0 mm 0.00 in0.0 mm 0.00 in0.0 mm
03:35 PM 65.5°F18.6°C 41.2°F5.1°C 41% 4.0 mph ENE6.4 kmh ENE 11.0 mph17.7 kmh 30.37 in1028.4 mb 0.00 in0.0 mm 0.00 in0.0 mm 0.00 in0.0 mm
03:40 PM 65.7°F18.7°C 40.7°F4.8°C 40% 5.0 mph NE8.0 kmh NE 10.0 mph16.1 kmh 30.37 in1028.4 mb 0.00 in0.0 mm 0.00 in0.0 mm 0.00 in0.0 mm
03:45 PM 66.4°F19.1°C 40.7°F4.8°C 39% 6.0 mph NE9.7 kmh NE 12.0 mph19.3 kmh 30.37 in1028.4 mb 0.00 in0.0 mm 0.00 in0.0 mm 0.00 in0.0 mm
03:50 PM 66.1°F18.9°C 41.1°F5.1°C 40% 5.0 mph NE8.0 kmh NE 10.0 mph16.1 kmh 30.37 in1028.4 mb 0.00 in0.0 mm 0.00 in0.0 mm 0.00 in0.0 mm
03:55 PM 66.3°F19.1°C 41.2°F5.1°C 40% 5.0 mph NE8.0 kmh NE 13.0 mph20.9 kmh 30.37 in1028.4 mb 0.00 in0.0 mm 0.00 in0.0 mm 0.00 in0.0 mm
04:00 PM 66.8°F19.3°C 41.7°F5.4°C 40% 3.0 mph NE4.8 kmh NE 10.0 mph16.1 kmh 30.37 in1028.4 mb 0.00 in0.0 mm 0.00 in0.0 mm 0.00 in0.0 mm
04:05 PM 65.9°F18.8°C 40.9°F4.9°C 40% 5.0 mph NE8.0 kmh NE 11.0 mph17.7 kmh 30.37 in1028.4 mb 0.00 in0.0 mm 0.00 in0.0 mm 0.00 in0.0 mm
04:10 PM 65.8°F18.8°C 41.4°F5.2°C 41% 5.0 mph NNE8.0 kmh NNE 12.0 mph19.3 kmh 30.37 in1028.4 mb 0.00 in0.0 mm 0.00 in0.0 mm 0.00 in0.0 mm
04:15 PM 66.0°F18.9°C 45.2°F7.3°C 47% 5.0 mph NNW8.0 kmh NNW 12.0 mph19.3 kmh 30.36 in1028.1 mb 0.00 in0.0 mm 0.00 in0.0 mm 0.00 in0.0 mm
04:20 PM 64.7°F18.2°C 45.1°F7.3°C 49% 9.0 mph NNW14.5 kmh NNW 12.0 mph19.3 kmh 30.36 in1028.1 mb 0.00 in0.0 mm 0.00 in0.0 mm 0.00 in0.0 mm
04:25 PM 64.7°F18.2°C 45.6°F7.6°C 50% 7.0 mph NNW11.3 kmh NNW 12.0 mph19.3 kmh 30.36 in1028.1 mb 0.00 in0.0 mm 0.00 in0.0 mm 0.00 in0.0 mm
04:30 PM 64.2°F17.9°C 45.7°F7.6°C 51% 9.0 mph NNW14.5 kmh NNW 13.0 mph20.9 kmh 30.36 in1028.1 mb 0.00 in0.0 mm 0.00 in0.0 mm 0.00 in0.0 mm
04:35 PM 63.7°F17.6°C 45.2°F7.3°C 51% 10.0 mph NNW16.1 kmh NNW 15.0 mph24.1 kmh 30.36 in1028.1 mb 0.00 in0.0 mm 0.00 in0.0 mm 0.00 in0.0 mm
04:40 PM 63.4°F17.4°C 44.4°F6.9°C 50% 10.0 mph NNW16.1 kmh NNW 14.0 mph22.5 kmh 30.36 in1028.1 mb 0.00 in0.0 mm 0.00 in0.0 mm 0.00 in0.0 mm
04:45 PM 63.2°F17.3°C 44.2°F6.8°C 50% 9.0 mph NNW14.5 kmh NNW 13.0 mph20.9 kmh 30.36 in1028.1 mb 0.00 in0.0 mm 0.00 in0.0 mm 0.00 in0.0 mm
04:50 PM 63.3°F17.4°C 44.3°F6.8°C 50% 7.0 mph 11.3 kmh 12.0 mph19.3 kmh 30.36 in1028.1 mb 0.00 in0.0 mm 0.00 in0.0 mm 0.00 in0.0 mm
04:55 PM 63.1°F17.3°C 44.7°F7.1°C 51% 9.0 mph NNW14.5 kmh NNW 13.0 mph20.9 kmh 30.36 in1028.1 mb 0.00 in0.0 mm 0.00 in0.0 mm 0.00 in0.0 mm
05:00 PM 62.9°F17.2°C 43.4°F6.3°C 49% 9.0 mph 14.5 kmh 13.0 mph20.9 kmh 30.36 in1028.1 mb 0.00 in0.0 mm 0.00 in0.0 mm 0.00 in0.0 mm
05:05 PM 62.5°F16.9°C 44.6°F7.0°C 52% 9.0 mph NNW14.5 kmh NNW 13.0 mph20.9 kmh 30.36 in1028.1 mb 0.00 in0.0 mm 0.00 in0.0 mm 0.00 in0.0 mm
05:10 PM 62.1°F16.7°C 45.3°F7.4°C 54% 7.0 mph NNW11.3 kmh NNW 12.0 mph19.3 kmh 30.36 in1028.1 mb 0.00 in0.0 mm 0.00 in0.0 mm 0.00 in0.0 mm
05:15 PM 62.1°F16.7°C 44.8°F7.1°C 53% 7.0 mph NNW11.3 kmh NNW 13.0 mph20.9 kmh 30.36 in1028.1 mb 0.00 in0.0 mm 0.00 in0.0 mm 0.00 in0.0 mm
05:20 PM 61.5°F16.4°C 44.2°F6.8°C 53% 9.0 mph NNW14.5 kmh NNW 13.0 mph20.9 kmh 30.35 in1027.8 mb 0.00 in0.0 mm 0.00 in0.0 mm 0.00 in0.0 mm
05:25 PM 61.0°F16.1°C 43.7°F6.5°C 53% 9.0 mph NNW14.5 kmh NNW 13.0 mph20.9 kmh 30.35 in1027.8 mb 0.00 in0.0 mm 0.00 in0.0 mm 0.00 in0.0 mm
05:30 PM 61.0°F16.1°C 43.7°F6.5°C 53% 8.0 mph 12.9 kmh 11.0 mph17.7 kmh 30.35 in1027.8 mb 0.00 in0.0 mm 0.00 in0.0 mm 0.00 in0.0 mm
05:35 PM 60.7°F15.9°C 44.4°F6.9°C 55% 7.0 mph NNW11.3 kmh NNW 12.0 mph19.3 kmh 30.35 in1027.8 mb 0.00 in0.0 mm 0.00 in0.0 mm 0.00 in0.0 mm
05:40 PM 60.2°F15.7°C 44.0°F6.7°C 55% 7.0 mph NNW11.3 kmh NNW 12.0 mph19.3 kmh 30.35 in1027.8 mb 0.00 in0.0 mm 0.00 in0.0 mm 0.00 in0.0 mm
05:45 PM 60.1°F15.6°C 43.9°F6.6°C 55% 6.0 mph 9.7 kmh 10.0 mph16.1 kmh 30.35 in1027.8 mb 0.00 in0.0 mm 0.00 in0.0 mm 0.00 in0.0 mm
05:50 PM 59.9°F15.5°C 43.7°F6.5°C 55% 6.0 mph NNW9.7 kmh NNW 10.0 mph16.1 kmh 30.34 in1027.4 mb 0.00 in0.0 mm 0.00 in0.0 mm 0.00 in0.0 mm
05:55 PM 59.6°F15.3°C 43.4°F6.3°C 55% 7.0 mph NNW11.3 kmh NNW 11.0 mph17.7 kmh 30.34 in1027.4 mb 0.00 in0.0 mm 0.00 in0.0 mm 0.00 in0.0 mm
06:00 PM 59.1°F15.1°C 43.4°F6.3°C 56% 9.0 mph NNW14.5 kmh NNW 11.0 mph17.7 kmh 30.34 in1027.4 mb 0.00 in0.0 mm 0.00 in0.0 mm 0.00 in0.0 mm
06:05 PM 58.9°F14.9°C 43.7°F6.5°C 57% 8.0 mph NNW12.9 kmh NNW 11.0 mph17.7 kmh 30.35 in1027.8 mb 0.00 in0.0 mm 0.00 in0.0 mm 0.00 in0.0 mm
06:10 PM 58.6°F14.8°C 43.4°F6.3°C 57% 8.0 mph NNW12.9 kmh NNW 12.0 mph19.3 kmh 30.35 in1027.8 mb 0.00 in0.0 mm 0.00 in0.0 mm 0.00 in0.0 mm
06:15 PM 58.2°F14.6°C 43.9°F6.6°C 59% 8.0 mph NNW12.9 kmh NNW 12.0 mph19.3 kmh 30.35 in1027.8 mb 0.00 in0.0 mm 0.00 in0.0 mm 0.00 in0.0 mm
06:20 PM 57.8°F14.3°C 43.1°F6.2°C 58% 7.0 mph NNW11.3 kmh NNW 11.0 mph17.7 kmh 30.35 in1027.8 mb 0.00 in0.0 mm 0.00 in0.0 mm 0.00 in0.0 mm
06:25 PM 57.5°F14.2°C 43.3°F6.3°C 59% 7.0 mph NNW11.3 kmh NNW 11.0 mph17.7 kmh 30.35 in1027.8 mb 0.00 in0.0 mm 0.00 in0.0 mm 0.00 in0.0 mm
06:30 PM 57.1°F13.9°C 42.9°F6.1°C 59% 5.0 mph NNW8.0 kmh NNW 10.0 mph16.1 kmh 30.34 in1027.4 mb 0.00 in0.0 mm 0.00 in0.0 mm 0.00 in0.0 mm
06:35 PM 56.7°F13.7°C 43.0°F6.1°C 60% 5.0 mph NNW8.0 kmh NNW 9.0 mph14.5 kmh 30.34 in1027.4 mb 0.00 in0.0 mm 0.00 in0.0 mm 0.00 in0.0 mm
06:40 PM 56.3°F13.5°C 43.0°F6.1°C 61% 5.0 mph NNW8.0 kmh NNW 9.0 mph14.5 kmh 30.34 in1027.4 mb 0.00 in0.0 mm 0.00 in0.0 mm 0.00 in0.0 mm
06:45 PM 55.7°F13.2°C 42.5°F5.8°C 61% 5.0 mph NNW8.0 kmh NNW 10.0 mph16.1 kmh 30.34 in1027.4 mb 0.00 in0.0 mm 0.00 in0.0 mm 0.00 in0.0 mm
06:50 PM 55.2°F12.9°C 42.4°F5.8°C 62% 5.0 mph NNW8.0 kmh NNW 10.0 mph16.1 kmh 30.34 in1027.4 mb 0.00 in0.0 mm 0.00 in0.0 mm 0.00 in0.0 mm
06:55 PM 54.6°F12.6°C 42.3°F5.7°C 63% 4.0 mph NNW6.4 kmh NNW 9.0 mph14.5 kmh 30.34 in1027.4 mb 0.00 in0.0 mm 0.00 in0.0 mm 0.00 in0.0 mm
07:00 PM 53.5°F11.9°C 42.4°F5.8°C 66% 3.0 mph NNW4.8 kmh NNW 5.0 mph8.0 kmh 30.34 in1027.4 mb 0.00 in0.0 mm 0.00 in0.0 mm 0.00 in0.0 mm
07:05 PM 52.8°F11.6°C 42.1°F5.6°C 67% 3.0 mph NNW4.8 kmh NNW 5.0 mph8.0 kmh 30.34 in1027.4 mb 0.00 in0.0 mm 0.00 in0.0 mm 0.00 in0.0 mm
07:10 PM 51.9°F11.1°C 42.1°F5.6°C 69% 2.0 mph NNW3.2 kmh NNW 5.0 mph8.0 kmh 30.34 in1027.4 mb 0.00 in0.0 mm 0.00 in0.0 mm 0.00 in0.0 mm
07:15 PM 51.1°F10.6°C 42.0°F5.6°C 71% 3.0 mph NNW4.8 kmh NNW 6.0 mph9.7 kmh 30.34 in1027.4 mb 0.00 in0.0 mm 0.00 in0.0 mm 0.00 in0.0 mm
07:20 PM 50.3°F10.2°C 41.6°F5.3°C 72% 3.0 mph NNW4.8 kmh NNW 8.0 mph12.9 kmh 30.34 in1027.4 mb 0.00 in0.0 mm 0.00 in0.0 mm 0.00 in0.0 mm
07:25 PM 49.6°F9.8°C 41.3°F5.2°C 73% 3.0 mph 4.8 kmh 6.0 mph9.7 kmh 30.34 in1027.4 mb 0.00 in0.0 mm 0.00 in0.0 mm 0.00 in0.0 mm
07:30 PM 49.2°F9.6°C 41.3°F5.2°C 74% 3.0 mph 4.8 kmh 6.0 mph9.7 kmh 30.34 in1027.4 mb 0.00 in0.0 mm 0.00 in0.0 mm 0.00 in0.0 mm
07:35 PM 48.8°F9.3°C 41.2°F5.1°C 75% 3.0 mph 4.8 kmh 8.0 mph12.9 kmh 30.34 in1027.4 mb 0.00 in0.0 mm 0.00 in0.0 mm 0.00 in0.0 mm
07:40 PM 48.5°F9.2°C 40.9°F4.9°C 75% 2.0 mph 3.2 kmh 5.0 mph8.0 kmh 30.34 in1027.4 mb 0.00 in0.0 mm 0.00 in0.0 mm 0.00 in0.0 mm
07:45 PM 48.1°F8.9°C 40.9°F4.9°C 76% 1.0 mph 1.6 kmh 6.0 mph9.7 kmh 30.34 in1027.4 mb 0.00 in0.0 mm 0.00 in0.0 mm 0.00 in0.0 mm
07:50 PM 47.6°F8.7°C 40.4°F4.7°C 76% 1.0 mph 1.6 kmh 5.0 mph8.0 kmh 30.34 in1027.4 mb 0.00 in0.0 mm 0.00 in0.0 mm 0.00 in0.0 mm
07:55 PM 47.1°F8.4°C 40.3°F4.6°C 77% 1.0 mph NNE1.6 kmh NNE 4.0 mph6.4 kmh 30.34 in1027.4 mb 0.00 in0.0 mm 0.00 in0.0 mm 0.00 in0.0 mm
08:00 PM 46.9°F8.3°C 40.4°F4.7°C 78% 1.0 mph NNE1.6 kmh NNE 5.0 mph8.0 kmh 30.34 in1027.4 mb 0.00 in0.0 mm 0.00 in0.0 mm 0.00 in0.0 mm
08:05 PM 46.4°F8.0°C 39.6°F4.2°C 77% 1.0 mph 1.6 kmh 3.0 mph4.8 kmh 30.34 in1027.4 mb 0.00 in0.0 mm 0.00 in0.0 mm 0.00 in0.0 mm
08:10 PM 45.0°F7.2°C 38.9°F3.8°C 79% Calm Calm 2.0 mph3.2 kmh 30.34 in1027.4 mb 0.00 in0.0 mm 0.00 in0.0 mm 0.00 in0.0 mm
08:15 PM 44.4°F6.9°C 39.3°F4.1°C 82% 1.0 mph 1.6 kmh 4.0 mph6.4 kmh 30.35 in1027.8 mb 0.00 in0.0 mm 0.00 in0.0 mm 0.00 in0.0 mm
08:20 PM 44.4°F6.9°C 39.6°F4.2°C 83% 1.0 mph 1.6 kmh 4.0 mph6.4 kmh 30.35 in1027.8 mb 0.00 in0.0 mm 0.00 in0.0 mm 0.00 in0.0 mm
08:25 PM 44.8°F7.1°C 39.6°F4.2°C 82% 1.0 mph 1.6 kmh 4.0 mph6.4 kmh 30.35 in1027.8 mb 0.00 in0.0 mm 0.00 in0.0 mm 0.00 in0.0 mm
08:30 PM 45.2°F7.3°C 39.7°F4.3°C 81% 2.0 mph NNE3.2 kmh NNE 5.0 mph8.0 kmh 30.35 in1027.8 mb 0.00 in0.0 mm 0.00 in0.0 mm 0.00 in0.0 mm
08:35 PM 46.3°F7.9°C 40.5°F4.7°C 80% 1.0 mph NNE1.6 kmh NNE 4.0 mph6.4 kmh 30.35 in1027.8 mb 0.00 in0.0 mm 0.00 in0.0 mm 0.00 in0.0 mm
08:40 PM 46.5°F8.1°C 39.7°F4.3°C 77% 1.0 mph NE1.6 kmh NE 3.0 mph4.8 kmh 30.35 in1027.8 mb 0.00 in0.0 mm 0.00 in0.0 mm 0.00 in0.0 mm
08:45 PM 46.6°F8.1°C 39.8°F4.3°C 77% 1.0 mph NNE1.6 kmh NNE 3.0 mph4.8 kmh 30.35 in1027.8 mb 0.00 in0.0 mm 0.00 in0.0 mm 0.00 in0.0 mm
08:50 PM 46.9°F8.3°C 39.7°F4.3°C 76% 1.0 mph NNE1.6 kmh NNE 4.0 mph6.4 kmh 30.35 in1027.8 mb 0.00 in0.0 mm 0.00 in0.0 mm 0.00 in0.0 mm
08:55 PM 47.0°F8.3°C 39.5°F4.2°C 75% 1.0 mph NE1.6 kmh NE 3.0 mph4.8 kmh 30.35 in1027.8 mb 0.00 in0.0 mm 0.00 in0.0 mm 0.00 in0.0 mm
09:00 PM 47.0°F8.3°C 39.5°F4.2°C 75% Calm Calm 3.0 mph4.8 kmh 30.35 in1027.8 mb 0.00 in0.0 mm 0.00 in0.0 mm 0.00 in0.0 mm
09:05 PM 46.9°F8.3°C 39.7°F4.3°C 76% 1.0 mph NE1.6 kmh NE 3.0 mph4.8 kmh 30.35 in1027.8 mb 0.00 in0.0 mm 0.00 in0.0 mm 0.00 in0.0 mm
09:10 PM 46.8°F8.2°C 39.3°F4.1°C 75% 1.0 mph NE1.6 kmh NE 3.0 mph4.8 kmh 30.35 in1027.8 mb 0.00 in0.0 mm 0.00 in0.0 mm 0.00 in0.0 mm
09:15 PM 46.5°F8.1°C 39.3°F4.1°C 76% 2.0 mph NNE3.2 kmh NNE 4.0 mph6.4 kmh 30.35 in1027.8 mb 0.00 in0.0 mm 0.00 in0.0 mm 0.00 in0.0 mm
09:20 PM 44.9°F7.2°C 38.1°F3.4°C 77% 1.0 mph NNE1.6 kmh NNE 3.0 mph4.8 kmh 30.35 in1027.8 mb 0.00 in0.0 mm 0.00 in0.0 mm 0.00 in0.0 mm
09:25 PM 44.1°F6.7°C 38.3°F3.5°C 80% 1.0 mph NNE1.6 kmh NNE 4.0 mph6.4 kmh 30.35 in1027.8 mb 0.00 in0.0 mm 0.00 in0.0 mm 0.00 in0.0 mm
09:30 PM 44.2°F6.8°C 38.4°F3.6°C 80% 1.0 mph NNE1.6 kmh NNE 3.0 mph4.8 kmh 30.34 in1027.4 mb 0.00 in0.0 mm 0.00 in0.0 mm 0.00 in0.0 mm
09:35 PM 43.9°F6.6°C 38.1°F3.4°C 80% 1.0 mph NNE1.6 kmh NNE 3.0 mph4.8 kmh 30.35 in1027.8 mb 0.00 in0.0 mm 0.00 in0.0 mm 0.00 in0.0 mm
09:40 PM 43.9°F6.6°C 38.5°F3.6°C 81% 1.0 mph NE1.6 kmh NE 4.0 mph6.4 kmh 30.34 in1027.4 mb 0.00 in0.0 mm 0.00 in0.0 mm 0.00 in0.0 mm
09:45 PM 43.3°F6.3°C 38.2°F3.4°C 82% 1.0 mph NE1.6 kmh NE 4.0 mph6.4 kmh 30.34 in1027.4 mb 0.00 in0.0 mm 0.00 in0.0 mm 0.00 in0.0 mm
09:50 PM 43.2°F6.2°C 38.1°F3.4°C 82% 1.0 mph NE1.6 kmh NE 4.0 mph6.4 kmh 30.34 in1027.4 mb 0.00 in0.0 mm 0.00 in0.0 mm 0.00 in0.0 mm
09:55 PM 43.0°F6.1°C 38.2°F3.4°C 83% 1.0 mph NNE1.6 kmh NNE 5.0 mph8.0 kmh 30.35 in1027.8 mb 0.00 in0.0 mm 0.00 in0.0 mm 0.00 in0.0 mm
10:00 PM 43.6°F6.4°C 38.5°F3.6°C 82% 1.0 mph NNE1.6 kmh NNE 4.0 mph6.4 kmh 30.34 in1027.4 mb 0.00 in0.0 mm 0.00 in0.0 mm 0.00 in0.0 mm
10:05 PM 43.9°F6.6°C 38.1°F3.4°C 80% 1.0 mph NE1.6 kmh NE 4.0 mph6.4 kmh 30.35 in1027.8 mb 0.00 in0.0 mm 0.00 in0.0 mm 0.00 in0.0 mm
10:10 PM 43.6°F6.4°C 38.2°F3.4°C 81% 2.0 mph NE3.2 kmh NE 5.0 mph8.0 kmh 30.34 in1027.4 mb 0.00 in0.0 mm 0.00 in0.0 mm 0.00 in0.0 mm
10:15 PM 43.4°F6.3°C 37.6°F3.1°C 80% 2.0 mph NE3.2 kmh NE 4.0 mph6.4 kmh 30.34 in1027.4 mb 0.00 in0.0 mm 0.00 in0.0 mm 0.00 in0.0 mm
10:20 PM 43.8°F6.6°C 38.0°F3.3°C 80% 1.0 mph NE1.6 kmh NE 5.0 mph8.0 kmh 30.34 in1027.4 mb 0.00 in0.0 mm 0.00 in0.0 mm 0.00 in0.0 mm
10:25 PM 43.6°F6.4°C 37.5°F3.1°C 79% 1.0 mph NE1.6 kmh NE 4.0 mph6.4 kmh 30.34 in1027.4 mb 0.00 in0.0 mm 0.00 in0.0 mm 0.00 in0.0 mm
10:30 PM 42.4°F5.8°C 36.7°F2.6°C 80% 1.0 mph NE1.6 kmh NE 4.0 mph6.4 kmh 30.34 in1027.4 mb 0.00 in0.0 mm 0.00 in0.0 mm 0.00 in0.0 mm
10:35 PM 41.3°F5.2°C 36.2°F2.3°C 82% Calm Calm 2.0 mph3.2 kmh 30.34 in1027.4 mb 0.00 in0.0 mm 0.00 in0.0 mm 0.00 in0.0 mm
10:40 PM 40.9°F4.9°C 36.1°F2.3°C 83% Calm Calm 2.0 mph3.2 kmh 30.34 in1027.4 mb 0.00 in0.0 mm 0.00 in0.0 mm 0.00 in0.0 mm
10:45 PM 40.4°F4.7°C 35.7°F2.1°C 83% 1.0 mph NE1.6 kmh NE 3.0 mph4.8 kmh 30.34 in1027.4 mb 0.00 in0.0 mm 0.00 in0.0 mm 0.00 in0.0 mm
10:50 PM 40.5°F4.7°C 36.4°F2.4°C 85% 1.0 mph NE1.6 kmh NE 3.0 mph4.8 kmh 30.34 in1027.4 mb 0.00 in0.0 mm 0.00 in0.0 mm 0.00 in0.0 mm
10:55 PM 40.3°F4.6°C 35.9°F2.2°C 84% 2.0 mph NE3.2 kmh NE 4.0 mph6.4 kmh 30.34 in1027.4 mb 0.00 in0.0 mm 0.00 in0.0 mm 0.00 in0.0 mm
11:00 PM 40.5°F4.7°C 36.1°F2.3°C 84% 1.0 mph NE1.6 kmh NE 3.0 mph4.8 kmh 30.34 in1027.4 mb 0.00 in0.0 mm 0.00 in0.0 mm 0.00 in0.0 mm
11:05 PM 40.1°F4.5°C 35.7°F2.1°C 84% 1.0 mph NE1.6 kmh NE 3.0 mph4.8 kmh 30.34 in1027.4 mb 0.00 in0.0 mm 0.00 in0.0 mm 0.00 in0.0 mm
11:10 PM 40.6°F4.8°C 36.4°F2.4°C 85% 1.0 mph NE1.6 kmh NE 3.0 mph4.8 kmh 30.34 in1027.4 mb 0.00 in0.0 mm 0.00 in0.0 mm 0.00 in0.0 mm
11:15 PM 41.5°F5.3°C 37.0°F2.8°C 84% 1.0 mph NE1.6 kmh NE 4.0 mph6.4 kmh 30.33 in1027.1 mb 0.00 in0.0 mm 0.00 in0.0 mm 0.00 in0.0 mm
11:20 PM 42.3°F5.7°C 37.2°F2.9°C 82% 1.0 mph NE1.6 kmh NE 4.0 mph6.4 kmh 30.33 in1027.1 mb 0.00 in0.0 mm 0.00 in0.0 mm 0.00 in0.0 mm
11:25 PM 42.4°F5.8°C 36.7°F2.6°C 80% 1.0 mph NE1.6 kmh NE 3.0 mph4.8 kmh 30.33 in1027.1 mb 0.00 in0.0 mm 0.00 in0.0 mm 0.00 in0.0 mm
11:30 PM 41.1°F5.1°C 35.4°F1.9°C 80% 1.0 mph NNE1.6 kmh NNE 4.0 mph6.4 kmh 30.33 in1027.1 mb 0.00 in0.0 mm 0.00 in0.0 mm 0.00 in0.0 mm
11:35 PM 40.6°F4.8°C 35.5°F1.9°C 82% 1.0 mph NNE1.6 kmh NNE 3.0 mph4.8 kmh 30.33 in1027.1 mb 0.00 in0.0 mm 0.00 in0.0 mm 0.00 in0.0 mm
11:40 PM 40.3°F4.6°C 35.6°F2.0°C 83% Calm Calm 2.0 mph3.2 kmh 30.33 in1027.1 mb 0.00 in0.0 mm 0.00 in0.0 mm 0.00 in0.0 mm
11:45 PM 39.8°F4.3°C 35.1°F1.7°C 83% Calm Calm 2.0 mph3.2 kmh 30.33 in1027.1 mb 0.00 in0.0 mm 0.00 in0.0 mm 0.00 in0.0 mm
11:50 PM 39.5°F4.2°C 34.8°F1.6°C 83% Calm Calm 2.0 mph3.2 kmh 30.33 in1027.1 mb 0.00 in0.0 mm 0.00 in0.0 mm 0.00 in0.0 mm
11:55 PM 38.7°F3.7°C 34.3°F1.3°C 84% 1.0 mph NNE1.6 kmh NNE 3.0 mph4.8 kmh 30.33 in1027.1 mb 0.00 in0.0 mm 0.00 in0.0 mm 0.00 in0.0 mm